Time;durP1;ratioP1;P1;durP2;ratioP2;P2;SDS_P1;SDS_P2;PMS_P1;PMS_P2;Temp;Humidity;BMP_temperature;BMP_pressure;BME280_temperature;BME280_humidity;BME280_pressure;Samples;Min_cycle;Max_cycle;Signal;HPM_P1;HPM_P2
2023/05/08 13:16:10;;;;;;;;;5.00;5.00;;;;;21.35;53.81;101728.44;5006781;27;1965553;-50
2023/05/08 13:18:36;;;;;;;;;4.00;4.00;;;;;21.26;53.68;101715.53;5039173;28;45420;-50
2023/05/08 13:21:02;;;;;;;;;7.50;6.00;;;;;21.13;52.88;101742.78;5044280;28;45314;-53
2023/05/08 13:23:27;;;;;;;;;2.00;1.00;;;;;21.03;53.69;101738.13;5047166;28;46586;-53
2023/05/08 13:25:54;;;;;;;;;5.75;5.75;;;;;21.01;55.32;101734.66;5071868;28;45380;-54
2023/05/08 13:28:19;;;;;;;;;4.50;4.50;;;;;21.00;55.38;101722.00;5075784;28;45503;-51
2023/05/08 13:30:44;;;;;;;;;6.75;4.75;;;;;20.97;54.08;101725.81;5071447;28;45483;-51
2023/05/08 13:33:10;;;;;;;;;3.25;3.25;;;;;20.88;54.56;101718.31;5058000;28;45237;-54
2023/05/08 13:35:36;;;;;;;;;5.50;4.25;;;;;20.87;55.08;101730.22;5054204;28;52186;-57
2023/05/08 13:38:02;;;;;;;;;4.00;4.00;;;;;20.74;53.98;101729.38;5055389;28;45268;-58
2023/05/08 13:40:28;;;;;;;;;6.25;4.50;;;;;20.72;55.73;101732.22;5062881;28;45436;-54
2023/05/08 13:42:53;;;;;;;;;4.00;4.00;;;;;20.73;55.73;101731.22;5055118;28;45544;-55
2023/05/08 13:45:19;;;;;;;;;4.00;4.00;;;;;20.70;55.88;101723.25;5054877;28;46099;-55
2023/05/08 13:47:47;;;;;;;;;5.00;5.00;;;;;20.81;55.12;101736.13;5055401;28;45352;-55
2023/05/08 13:50:15;;;;;;;;;6.00;6.00;;;;;20.88;55.26;101731.94;5054991;28;45329;-56
2023/05/08 13:52:41;;;;;;;;;4.75;4.75;;;;;20.89;54.78;101720.06;5063280;28;45408;-56
2023/05/08 13:55:09;;;;;;;;;3.25;3.25;;;;;20.98;55.23;101718.53;5056501;28;45306;-56
2023/05/08 13:57:34;;;;;;;;;2.50;2.50;;;;;21.02;54.99;101709.13;5058380;27;45667;-53
2023/05/08 14:00:00;;;;;;;;;3.25;3.25;;;;;21.05;56.04;101706.16;5057137;28;45296;-58
2023/05/08 14:02:25;;;;;;;;;4.00;2.50;;;;;20.97;56.34;101684.94;5055130;28;45585;-58
2023/05/08 14:04:51;;;;;;;;;6.25;5.00;;;;;21.15;55.18;101705.38;5054482;28;46101;-57
2023/05/08 14:07:17;;;;;;;;;5.00;4.25;;;;;21.03;54.23;101705.41;5073665;28;45585;-56
2023/05/08 14:09:43;;;;;;;;;4.00;4.00;;;;;21.02;54.72;101701.81;5043058;28;45292;-57
2023/05/08 14:12:09;;;;;;;;;4.25;4.25;;;;;21.12;53.96;101702.00;5054485;28;45295;-57
2023/05/08 14:14:34;;;;;;;;;6.50;3.50;;;;;21.18;54.45;101711.63;5067234;28;45786;-57
2023/05/08 14:17:00;;;;;;;;;4.00;4.00;;;;;21.18;53.48;101711.63;5048085;28;45286;-55
2023/05/08 14:19:25;;;;;;;;;6.00;4.75;;;;;21.23;54.08;101709.41;5061912;28;45306;-56
2023/05/08 14:21:50;;;;;;;;;3.50;3.50;;;;;21.29;54.30;101701.63;5060746;28;54210;-57
2023/05/08 14:24:16;;;;;;;;;2.75;2.75;;;;;21.44;54.40;101699.59;5061306;28;46766;-56
2023/05/08 14:26:42;;;;;;;;;6.00;4.50;;;;;21.52;53.36;101695.28;5061456;28;46452;-56
2023/05/08 14:29:08;;;;;;;;;3.25;3.00;;;;;21.61;52.79;101693.72;5029756;28;45334;-58
2023/05/08 14:31:33;;;;;;;;;3.25;3.25;;;;;21.65;53.72;101694.34;5061139;28;45343;-56
2023/05/08 14:33:58;;;;;;;;;3.00;3.00;;;;;21.70;52.80;101689.41;5061308;28;45281;-56
2023/05/08 14:36:23;;;;;;;;;3.50;3.50;;;;;21.70;52.68;101673.88;5060838;28;51441;-56
2023/05/08 14:38:49;;;;;;;;;3.00;3.00;;;;;21.57;51.41;101664.06;5060885;28;56588;-57
2023/05/08 14:41:14;;;;;;;;;2.00;2.00;;;;;21.65;53.02;101675.25;5043733;28;45257;-57
2023/05/08 14:43:41;;;;;;;;;2.00;2.00;;;;;21.61;51.24;101674.59;5040468;28;58381;-56
2023/05/08 14:46:06;;;;;;;;;3.00;3.00;;;;;21.42;51.82;101649.75;5041068;28;45408;-55
2023/05/08 14:48:32;;;;;;;;;2.75;2.75;;;;;21.42;51.88;101661.53;5053087;28;45449;-57
2023/05/08 14:50:57;;;;;;;;;4.00;4.00;;;;;21.38;52.26;101659.13;5040849;28;51668;-57
2023/05/08 14:53:22;;;;;;;;;3.00;2.25;;;;;21.21;51.67;101660.44;5040885;28;46261;-57
2023/05/08 14:55:48;;;;;;;;;4.00;2.25;;;;;21.28;52.60;101679.91;5051550;28;45193;-56
2023/05/08 14:58:13;;;;;;;;;3.00;3.00;;;;;21.14;52.36;101670.91;5066447;28;45598;-58
2023/05/08 15:00:39;;;;;;;;;2.75;2.75;;;;;21.20;52.88;101669.59;5059887;28;45255;-55
2023/05/08 15:03:04;;;;;;;;;2.00;2.00;;;;;21.29;52.30;101670.75;5040853;28;45943;-58
2023/05/08 15:05:30;;;;;;;;;3.50;3.00;;;;;21.18;52.11;101671.56;5040265;28;45237;-71
2023/05/08 15:07:56;;;;;;;;;2.25;2.25;;;;;21.17;52.51;101680.75;5055341;28;45236;-72
2023/05/08 15:10:21;;;;;;;;;3.00;3.00;;;;;21.20;52.94;101679.63;5061245;28;45331;-72
2023/05/08 15:12:47;;;;;;;;;3.50;3.50;;;;;21.26;52.83;101673.72;5060606;28;46129;-71
2023/05/08 15:15:12;;;;;;;;;3.25;3.25;;;;;21.14;52.55;101640.91;5052903;28;45466;-72
2023/05/08 15:17:40;;;;;;;;;2.50;2.50;;;;;21.24;52.44;101671.13;5040650;28;45503;-72
2023/05/08 15:20:06;;;;;;;;;4.25;2.75;;;;;21.10;52.93;101649.41;5040381;28;45327;-72
2023/05/08 15:22:31;;;;;;;;;3.75;3.75;;;;;21.17;53.61;101645.31;5052497;28;45529;-72
2023/05/08 15:25:01;;;;;;;;;4.50;4.50;;;;;21.23;52.10;101660.31;5040353;28;45422;-74
2023/05/08 15:27:29;;;;;;;;;2.25;2.25;;;;;21.09;53.24;101656.75;5041954;28;45411;-60
2023/05/08 15:29:56;;;;;;;;;4.50;3.00;;;;;20.98;52.81;101661.28;5067654;28;45452;-69
2023/05/08 15:34:56;;;;;;;;;5.00;4.00;;;;;20.95;53.73;101670.53;5138345;22;46891;-72
2023/05/08 15:39:56;;;;;;;;;3.00;3.00;;;;;20.89;53.33;101645.59;5007626;26;45327;-71
2023/05/08 15:42:22;;;;;;;;;3.00;3.00;;;;;20.99;54.18;101665.75;5017764;28;59278;-71
2023/05/08 15:44:48;;;;;;;;;1.50;1.50;;;;;20.84;52.82;101643.19;5019590;28;45200;-71
2023/05/08 15:47:13;;;;;;;;;0.00;0.00;;;;;20.86;53.24;101640.38;5020348;28;45395;-72
2023/05/08 15:49:38;;;;;;;;;4.50;4.50;;;;;21.03;53.58;101657.19;5020499;28;46725;-71
2023/05/08 15:52:03;;;;;;;;;4.25;3.00;;;;;21.04;53.19;101648.03;5020139;28;45490;-72
2023/05/08 15:54:29;;;;;;;;;4.00;4.00;;;;;21.09;53.10;101650.44;5019397;28;54049;-72
2023/05/08 15:56:54;;;;;;;;;3.75;3.75;;;;;21.05;53.47;101636.16;5019968;28;45485;-64
2023/05/08 15:59:19;;;;;;;;;2.75;2.75;;;;;21.07;52.69;101645.09;5019790;28;55356;-58
2023/05/08 16:01:45;;;;;;;;;1.75;1.75;;;;;21.02;52.67;101643.69;5018689;28;61585;-59
2023/05/08 16:04:11;;;;;;;;;3.25;3.25;;;;;21.06;53.17;101651.53;5020198;28;45481;-64
2023/05/08 16:09:11;;;;;;;;;2.00;2.00;;;;;21.06;53.02;101662.44;5162073;22;45450;-63
2023/05/08 16:11:37;;;;;;;;;3.00;3.00;;;;;21.07;54.12;101657.84;5018574;28;65868;-61
2023/05/08 16:14:02;;;;;;;;;3.75;3.00;;;;;21.08;53.80;101663.19;5019572;28;50583;-62
2023/05/08 16:16:28;;;;;;;;;2.50;2.50;;;;;20.99;53.15;101661.16;5019928;28;45281;-50
2023/05/08 16:18:53;;;;;;;;;2.75;2.75;;;;;20.98;53.76;101669.44;5019883;28;45238;-70
2023/05/08 16:21:19;;;;;;;;;3.75;3.75;;;;;20.96;53.36;101665.97;5018737;28;55712;-62
2023/05/08 16:23:44;;;;;;;;;2.50;2.50;;;;;20.94;53.94;101655.16;5623637;22;46130;-58
2023/05/08 16:26:10;;;;;;;;;3.00;3.00;;;;;20.96;54.20;101650.47;5031615;28;45426;-60
2023/05/08 16:28:35;;;;;;;;;3.50;2.75;;;;;20.98;54.72;101645.78;5023318;28;45388;-62
2023/05/08 16:33:36;;;;;;;;;4.00;4.00;;;;;20.87;55.03;101628.47;5132913;22;45549;-63
2023/05/08 16:36:01;;;;;;;;;3.50;3.50;;;;;20.89;54.75;101641.03;5013263;28;45928;-65
2023/05/08 16:38:26;;;;;;;;;3.75;3.75;;;;;20.87;55.17;101639.38;5017759;28;59722;-66
2023/05/08 16:40:51;;;;;;;;;3.75;3.75;;;;;20.89;54.83;101629.25;5013649;28;62446;-57
2023/05/08 16:43:17;;;;;;;;;5.00;5.00;;;;;20.89;55.48;101626.53;5017796;28;57800;-60
2023/05/08 16:45:42;;;;;;;;;4.00;4.00;;;;;20.94;55.81;101624.31;5019508;28;45217;-54
2023/05/08 16:48:07;;;;;;;;;3.50;3.00;;;;;20.95;55.54;101617.88;5018683;28;54780;-61
2023/05/08 16:50:33;;;;;;;;;5.25;4.25;;;;;20.94;55.56;101616.13;5016025;28;56890;-49
2023/05/08 16:52:58;;;;;;;;;4.25;4.25;;;;;21.02;55.91;101609.09;5019153;28;45477;-56
2023/05/08 16:55:23;;;;;;;;;5.50;4.00;;;;;21.03;55.42;101596.34;5019608;28;45319;-64
2023/05/08 16:57:51;;;;;;;;;4.50;4.50;;;;;21.15;55.55;101590.84;5019070;28;45360;-60
2023/05/08 17:00:17;;;;;;;;;4.00;4.00;;;;;21.21;55.17;101589.53;5019253;28;46858;-57
2023/05/08 17:02:42;;;;;;;;;5.50;4.00;;;;;21.26;54.90;101584.59;5018791;28;45332;-61
2023/05/08 17:05:08;;;;;;;;;4.25;4.25;;;;;21.19;55.13;101594.22;5019398;28;45509;-60
2023/05/08 17:07:33;;;;;;;;;5.25;5.25;;;;;21.14;55.19;101585.50;5009634;28;45478;-62
2023/05/08 17:09:59;;;;;;;;;6.00;4.00;;;;;21.26;55.23;101581.00;5019147;28;45272;-62
2023/05/08 17:12:24;;;;;;;;;5.00;5.00;;;;;21.26;55.28;101579.16;5019001;28;45218;-62
2023/05/08 17:14:49;;;;;;;;;4.75;4.00;;;;;21.25;54.95;101569.22;5019431;28;45244;-62
2023/05/08 17:17:15;;;;;;;;;4.00;4.00;;;;;21.31;55.43;101589.69;5018343;28;54907;-62
2023/05/08 17:19:43;;;;;;;;;3.50;3.50;;;;;21.29;55.51;101589.78;5019237;28;46234;-63
2023/05/08 17:22:08;;;;;;;;;3.50;3.50;;;;;21.25;55.28;101590.16;5018690;28;45427;-62
2023/05/08 17:24:36;;;;;;;;;3.00;3.00;;;;;21.23;55.17;101600.31;5019048;28;45231;-62
2023/05/08 17:27:02;;;;;;;;;6.50;5.75;;;;;21.14;54.80;101594.56;5018986;28;45373;-61
2023/05/08 17:29:27;;;;;;;;;4.75;2.00;;;;;21.08;55.20;101597.75;5017418;28;47539;-62
2023/05/08 17:31:53;;;;;;;;;4.00;4.00;;;;;21.04;55.56;101596.22;5016249;28;47924;-62
2023/05/08 17:34:19;;;;;;;;;3.50;2.75;;;;;20.91;56.19;101614.53;5016560;28;45333;-61
2023/05/08 17:36:45;;;;;;;;;3.00;3.00;;;;;20.84;56.62;101610.50;5014094;28;46830;-64
2023/05/08 17:39:11;;;;;;;;;3.00;3.00;;;;;20.74;56.70;101613.06;5011609;28;45228;-62
2023/05/08 17:41:36;;;;;;;;;6.00;4.00;;;;;20.66;56.89;101607.31;5018220;28;45327;-63
2023/05/08 17:44:03;;;;;;;;;5.00;4.00;;;;;20.64;57.20;101602.94;5017895;28;57974;-61
2023/05/08 17:46:28;;;;;;;;;4.50;4.50;;;;;20.60;57.35;101599.56;5018716;28;45396;-69
2023/05/08 17:48:53;;;;;;;;;4.25;4.00;;;;;20.60;57.78;101601.44;5018095;28;46494;-69
2023/05/08 17:51:19;;;;;;;;;3.50;3.50;;;;;20.55;57.85;101601.78;5019486;28;56015;-69
2023/05/08 17:53:44;;;;;;;;;2.75;2.75;;;;;20.53;57.87;101597.41;5022167;28;45379;-68
2023/05/08 17:56:09;;;;;;;;;4.50;4.50;;;;;20.53;58.20;101590.13;5021826;28;45359;-67
2023/05/08 17:58:35;;;;;;;;;4.50;3.50;;;;;20.52;57.76;101591.09;5021836;28;45351;-69
2023/05/08 18:01:00;;;;;;;;;4.25;4.25;;;;;20.46;58.42;101587.97;5021415;28;45363;-68
2023/05/08 18:03:25;;;;;;;;;3.00;3.00;;;;;20.49;58.28;101585.03;5021763;28;45324;-67
2023/05/08 18:05:51;;;;;;;;;5.00;5.00;;;;;20.51;58.28;101589.34;5021587;28;45311;-71
2023/05/08 18:08:16;;;;;;;;;5.00;3.00;;;;;20.50;58.55;101586.78;5009109;28;61138;-61
2023/05/08 18:10:41;;;;;;;;;3.00;2.50;;;;;20.46;58.19;101586.13;5020445;28;45277;-67
2023/05/08 18:13:07;;;;;;;;;3.00;3.00;;;;;20.43;58.26;101588.19;5017498;28;49003;-58
2023/05/08 18:15:34;;;;;;;;;3.50;3.50;;;;;20.37;58.47;101576.78;5020238;28;45506;-54
2023/05/08 18:18:00;;;;;;;;;4.25;3.50;;;;;20.38;58.40;101586.69;5013940;28;48225;-60
2023/05/08 18:20:25;;;;;;;;;3.25;3.25;;;;;20.38;58.57;101583.09;5019828;28;45307;-60
2023/05/08 18:22:51;;;;;;;;;8.50;4.75;;;;;20.38;58.64;101583.09;5021386;28;46645;-59
2023/05/08 18:25:16;;;;;;;;;4.00;4.00;;;;;20.40;58.80;101578.41;5019993;28;63438;-57
2023/05/08 18:27:44;;;;;;;;;3.25;3.25;;;;;20.42;58.67;101581.88;5021133;28;45974;-66
2023/05/08 18:30:10;;;;;;;;;4.00;4.00;;;;;20.42;58.47;101572.81;5020873;28;45395;-66
2023/05/08 18:32:35;;;;;;;;;4.50;4.50;;;;;20.43;58.33;101580.88;5017107;28;45431;-64
2023/05/08 18:35:01;;;;;;;;;4.75;4.75;;;;;20.41;58.77;101577.44;5010725;28;45312;-63
2023/05/08 18:37:27;;;;;;;;;7.50;6.00;;;;;20.36;58.72;101575.03;5020526;28;46920;-64
2023/05/08 18:39:52;;;;;;;;;8.00;6.00;;;;;20.36;58.91;101569.56;5020595;28;45360;-63
2023/05/08 18:42:18;;;;;;;;;4.75;4.75;;;;;20.33;58.91;101567.03;5011127;28;45403;-63
2023/05/08 18:44:43;;;;;;;;;4.00;4.00;;;;;20.30;58.74;101563.69;5020056;28;60712;-64
2023/05/08 18:47:08;;;;;;;;;6.50;4.00;;;;;20.35;58.83;101566.97;5020217;28;45325;-64
2023/05/08 18:49:34;;;;;;;;;5.00;5.00;;;;;20.35;58.99;101573.28;5020448;28;45423;-62
2023/05/08 18:51:59;;;;;;;;;9.25;5.00;;;;;20.33;58.70;101568.91;5020603;28;45310;-63
2023/05/08 18:54:25;;;;;;;;;6.25;6.00;;;;;20.30;58.79;101570.00;5020377;28;45320;-64
2023/05/08 18:56:54;;;;;;;;;4.50;3.00;;;;;20.32;58.52;101568.03;5020573;28;46205;-63
2023/05/08 18:59:20;;;;;;;;;6.50;5.00;;;;;20.29;59.07;101570.09;5020138;28;45402;-63
2023/05/08 19:01:46;;;;;;;;;4.75;4.75;;;;;20.26;59.20;101562.16;5019212;28;45428;-64
2023/05/08 19:04:11;;;;;;;;;5.00;5.00;;;;;20.24;59.24;101564.16;5020384;28;45363;-64
2023/05/08 19:06:36;;;;;;;;;5.00;5.00;;;;;20.23;59.55;101568.72;5019931;28;48555;-63
2023/05/08 19:09:02;;;;;;;;;5.00;5.00;;;;;20.20;59.75;101563.50;5020197;28;45382;-64
2023/05/08 19:11:27;;;;;;;;;4.75;4.75;;;;;20.23;59.76;101565.13;5020390;28;45312;-63
2023/05/08 19:13:52;;;;;;;;;5.50;5.50;;;;;20.19;60.28;101556.28;5020229;28;45419;-64
2023/05/08 19:16:18;;;;;;;;;5.50;5.50;;;;;20.18;60.22;101556.41;5019703;28;45296;-63
2023/05/08 19:18:43;;;;;;;;;6.50;6.50;;;;;20.16;60.53;101563.84;5019302;28;45265;-64
2023/05/08 19:21:08;;;;;;;;;5.50;5.50;;;;;20.14;61.09;101563.06;5019132;28;45577;-63
2023/05/08 19:23:34;;;;;;;;;5.00;5.00;;;;;20.09;61.21;101557.06;5019816;28;45442;-61
2023/05/08 19:25:59;;;;;;;;;6.75;5.25;;;;;20.11;61.15;101566.88;5019901;28;45615;-63
2023/05/08 19:28:25;;;;;;;;;6.00;6.00;;;;;20.09;61.35;101568.84;5019897;28;45327;-63
2023/05/08 19:30:50;;;;;;;;;6.25;6.00;;;;;20.09;61.54;101567.97;5019905;28;45925;-63
2023/05/08 19:33:19;;;;;;;;;5.00;5.00;;;;;19.99;61.76;101565.91;5018904;28;54307;-63
2023/05/08 19:35:45;;;;;;;;;6.25;6.00;;;;;19.97;62.71;101567.03;5019470;28;46428;-63
2023/05/08 19:38:10;;;;;;;;;7.00;5.75;;;;;19.96;62.52;101577.03;5019531;28;45382;-61
2023/05/08 19:40:35;;;;;;;;;8.75;8.75;;;;;19.98;62.65;101577.78;5015178;28;45490;-64
2023/05/08 19:43:00;;;;;;;;;6.75;6.75;;;;;19.97;62.33;101561.56;5019683;28;45513;-62
2023/05/08 19:45:26;;;;;;;;;7.00;6.00;;;;;20.01;62.77;101576.69;5018506;28;57692;-63
2023/05/08 19:47:51;;;;;;;;;7.50;6.00;;;;;20.01;62.72;101582.13;5018353;28;51857;-63
2023/05/08 19:50:17;;;;;;;;;5.00;5.00;;;;;20.02;62.55;101586.59;5019481;28;45372;-63
2023/05/08 19:52:45;;;;;;;;;7.00;7.00;;;;;19.99;63.15;101584.09;5018317;28;45440;-63
2023/05/08 19:55:11;;;;;;;;;5.25;5.25;;;;;19.97;62.81;101573.34;5018978;28;45281;-63
2023/05/08 19:57:36;;;;;;;;;7.50;7.25;;;;;19.95;63.32;101586.19;5018804;28;45273;-63
2023/05/08 20:00:02;;;;;;;;;5.75;5.75;;;;;19.88;63.40;101584.88;5018879;28;50335;-63
2023/05/08 20:02:29;;;;;;;;;8.25;7.25;;;;;19.92;63.51;101591.81;5017513;28;46104;-63
2023/05/08 20:04:54;;;;;;;;;7.00;6.25;;;;;19.91;63.95;101590.06;5009143;28;46206;-63
2023/05/08 20:07:19;;;;;;;;;5.00;5.00;;;;;19.90;63.31;101590.22;5018725;28;45519;-63
2023/05/08 20:09:44;;;;;;;;;4.75;4.75;;;;;19.91;63.61;101581.91;5019321;28;45324;-63
2023/05/08 20:12:10;;;;;;;;;6.00;6.00;;;;;19.90;63.30;101592.94;5019067;28;45379;-63
2023/05/08 20:14:35;;;;;;;;;4.75;4.75;;;;;19.83;63.61;101592.47;5015975;28;45360;-62
2023/05/08 20:17:00;;;;;;;;;5.25;5.25;;;;;19.80;63.82;101589.13;5010762;28;50764;-63
2023/05/08 20:19:26;;;;;;;;;8.50;6.00;;;;;19.79;63.94;101588.25;5019285;28;45312;-62
2023/05/08 20:21:51;;;;;;;;;8.00;6.50;;;;;19.80;63.84;101580.97;5017948;28;45888;-62
2023/05/08 20:24:16;;;;;;;;;5.25;5.25;;;;;19.85;64.01;101585.09;5018700;28;54642;-62
2023/05/08 20:26:42;;;;;;;;;4.25;4.25;;;;;19.77;64.01;101590.19;5019150;28;45458;-63
2023/05/08 20:29:08;;;;;;;;;5.25;5.25;;;;;19.79;63.90;101601.84;5018188;28;45419;-68
2023/05/08 20:31:33;;;;;;;;;5.00;5.00;;;;;19.79;63.99;101598.25;5018269;28;45359;-64
2023/05/08 20:33:59;;;;;;;;;8.00;7.00;;;;;19.75;64.15;101594.88;5018883;28;46137;-65
2023/05/08 20:36:25;;;;;;;;;6.75;6.00;;;;;19.77;64.19;101583.88;5012366;28;56022;-65
2023/05/08 20:38:50;;;;;;;;;6.25;4.75;;;;;19.77;64.10;101582.03;5008170;28;45361;-64
2023/05/08 20:41:16;;;;;;;;;8.25;7.25;;;;;19.71;64.25;101579.75;5016408;28;45581;-64
2023/05/08 20:43:41;;;;;;;;;6.00;6.00;;;;;19.70;64.24;101580.75;5016558;28;46021;-64
2023/05/08 20:46:07;;;;;;;;;5.75;5.00;;;;;19.68;64.12;101571.81;5016561;28;45411;-65
2023/05/08 20:48:32;;;;;;;;;8.25;8.25;;;;;19.67;64.30;101572.78;5016579;28;45459;-66
2023/05/08 20:50:57;;;;;;;;;6.00;6.00;;;;;19.61;64.34;101575.94;5017540;28;45479;-64
2023/05/08 20:53:23;;;;;;;;;6.00;6.00;;;;;19.57;64.22;101568.97;5018946;28;50692;-64
2023/05/08 20:55:48;;;;;;;;;6.00;5.25;;;;;19.52;64.40;101566.59;5018511;28;55354;-65
2023/05/08 20:58:13;;;;;;;;;6.50;5.50;;;;;19.53;64.68;101565.59;5019131;28;45308;-64
2023/05/08 21:00:38;;;;;;;;;6.00;6.00;;;;;19.55;64.80;101555.50;5018309;28;60293;-64
2023/05/08 21:03:04;;;;;;;;;7.75;7.75;;;;;19.51;64.80;101558.53;5018717;28;46439;-64
2023/05/08 21:05:29;;;;;;;;;6.25;6.00;;;;;19.51;64.68;101553.09;5018664;28;45398;-64
2023/05/08 21:07:58;;;;;;;;;5.50;5.50;;;;;19.53;64.58;101553.84;5019161;28;45410;-64
2023/05/08 21:10:26;;;;;;;;;4.00;4.00;;;;;19.50;64.50;101540.47;5018810;28;45540;-64
2023/05/08 21:12:51;;;;;;;;;5.00;5.00;;;;;19.46;64.56;101522.59;5018885;28;46225;-65
2023/05/08 21:15:17;;;;;;;;;5.75;5.75;;;;;19.45;64.83;101529.88;5018739;28;45344;-64
2023/05/08 21:17:42;;;;;;;;;5.00;5.00;;;;;19.42;64.87;101516.50;5018695;28;45194;-64
2023/05/08 21:20:08;;;;;;;;;4.00;4.00;;;;;19.39;65.22;101521.28;5018446;28;45772;-65
2023/05/08 21:22:33;;;;;;;;;6.00;6.00;;;;;19.39;65.09;101524.88;5018684;28;46065;-64
2023/05/08 21:24:58;;;;;;;;;5.75;5.00;;;;;19.41;65.23;101517.47;5018653;28;45419;-64
2023/05/08 21:27:27;;;;;;;;;5.25;5.25;;;;;19.41;65.13;101516.59;5022121;28;45317;-63
2023/05/08 21:29:52;;;;;;;;;6.50;6.50;;;;;19.38;65.05;101501.38;5022237;28;45360;-64
2023/05/08 21:32:17;;;;;;;;;6.25;6.25;;;;;19.28;65.07;101483.97;5021622;28;46099;-64
2023/05/08 21:34:43;;;;;;;;;6.00;5.00;;;;;19.34;64.32;101502.56;5021579;28;45453;-64
2023/05/08 21:37:09;;;;;;;;;6.75;5.00;;;;;19.27;64.97;101502.13;5022240;28;45431;-64
2023/05/08 21:39:35;;;;;;;;;5.00;5.00;;;;;19.30;65.25;101508.34;5021972;28;45326;-64
2023/05/08 21:42:02;;;;;;;;;10.00;7.00;;;;;19.24;65.00;101504.19;5021552;28;45289;-64
2023/05/08 21:44:27;;;;;;;;;7.75;7.00;;;;;19.15;65.28;101494.81;5021556;28;45169;-64
2023/05/08 21:46:53;;;;;;;;;7.75;6.00;;;;;19.19;65.26;101503.66;5021659;28;45331;-64
2023/05/08 21:49:18;;;;;;;;;5.50;4.25;;;;;19.18;65.61;101493.75;5021062;28;58708;-65
2023/05/08 21:51:44;;;;;;;;;6.25;5.00;;;;;19.18;65.59;101493.75;5021130;28;63227;-65
2023/05/08 21:54:10;;;;;;;;;6.75;6.00;;;;;19.10;65.84;101493.41;5021408;28;45422;-65
2023/05/08 21:56:36;;;;;;;;;6.00;6.00;;;;;19.10;65.81;101499.72;5021762;28;45482;-64
2023/05/08 21:59:01;;;;;;;;;5.00;5.00;;;;;19.05;66.23;101495.59;5021425;28;45517;-64
2023/05/08 22:01:27;;;;;;;;;7.50;7.50;;;;;19.08;66.43;101492.66;5021145;28;54867;-64
2023/05/08 22:03:52;;;;;;;;;6.50;6.25;;;;;19.05;66.08;101495.59;5021333;28;45373;-65
2023/05/08 22:06:17;;;;;;;;;5.75;5.00;;;;;19.04;66.24;101492.00;5021295;28;53278;-65
2023/05/08 22:08:42;;;;;;;;;6.00;6.00;;;;;19.06;66.16;101494.59;5021005;28;60137;-65
2023/05/08 22:11:08;;;;;;;;;6.00;6.00;;;;;19.02;66.04;101487.66;5021500;28;47037;-66
2023/05/08 22:13:33;;;;;;;;;6.50;6.50;;;;;18.99;66.47;101486.00;5021474;28;45385;-65
2023/05/08 22:15:58;;;;;;;;;7.50;6.75;;;;;18.89;66.84;101488.47;5021488;28;45257;-64
2023/05/08 22:18:24;;;;;;;;;7.00;7.00;;;;;18.85;67.18;101489.69;5021113;28;45346;-64
2023/05/08 22:20:49;;;;;;;;;5.00;5.00;;;;;18.82;67.46;101489.00;5021375;28;45368;-65
2023/05/08 22:23:14;;;;;;;;;6.25;4.50;;;;;18.84;67.45;101482.50;5021382;28;45308;-63
2023/05/08 22:25:40;;;;;;;;;7.00;7.00;;;;;18.76;67.92;101482.16;5021431;28;45660;-64
2023/05/08 22:28:05;;;;;;;;;8.25;6.75;;;;;18.80;67.85;101494.53;5021096;28;45242;-64
2023/05/08 22:30:30;;;;;;;;;6.00;6.00;;;;;18.67;67.71;101466.47;5021179;28;45423;-64
2023/05/08 22:32:56;;;;;;;;;7.75;6.50;;;;;18.72;67.94;101483.31;5020504;28;45413;-65
2023/05/08 22:35:24;;;;;;;;;6.00;6.00;;;;;18.74;68.12;101485.94;5007927;28;45313;-65
2023/05/08 22:37:50;;;;;;;;;7.00;7.00;;;;;18.73;68.07;101482.34;5020136;28;45691;-64
2023/05/08 22:40:15;;;;;;;;;8.25;7.00;;;;;18.73;67.83;101474.19;5020857;28;45323;-66
2023/05/08 22:42:42;;;;;;;;;7.75;6.25;;;;;18.69;67.81;101479.97;5020901;28;45339;-64
2023/05/08 22:45:08;;;;;;;;;5.75;5.75;;;;;18.74;68.03;101478.66;5021170;28;45341;-64
2023/05/08 22:47:34;;;;;;;;;6.25;5.00;;;;;18.76;67.71;101473.13;5020512;28;45457;-63
2023/05/08 22:49:59;;;;;;;;;3.00;3.00;;;;;18.75;66.98;101479.53;5020817;28;46260;-64
2023/05/08 22:52:25;;;;;;;;;8.50;7.25;;;;;18.61;66.99;101466.03;5020740;28;45411;-63
2023/05/08 22:54:50;;;;;;;;;6.00;4.00;;;;;18.62;66.60;101467.78;5021211;28;45345;-63
2023/05/08 22:57:16;;;;;;;;;5.75;5.75;;;;;18.56;66.23;101466.31;5020332;28;59759;-64
2023/05/08 22:59:41;;;;;;;;;5.50;4.50;;;;;18.48;64.91;101469.53;5020929;28;46138;-65
